createdAt,value
2024-02-29T00:00:34.090Z,6.93
2024-02-29T00:01:34.074Z,6.49
2024-02-29T00:02:34.061Z,7.03
2024-02-29T00:03:34.132Z,7.08
2024-02-29T00:04:34.167Z,6.92
2024-02-29T00:05:34.182Z,6.98
2024-02-29T00:06:34.229Z,6.92
2024-02-29T00:07:34.241Z,7.09
2024-02-29T00:08:34.287Z,6.62
2024-02-29T00:09:34.378Z,7.11
2024-02-29T00:10:34.364Z,6.69
2024-02-29T00:11:34.471Z,7.61
2024-02-29T00:12:34.439Z,7.13
2024-02-29T00:13:34.469Z,6.87
2024-02-29T00:14:34.534Z,7.51
2024-02-29T00:15:34.689Z,6.87
2024-02-29T00:16:34.617Z,6.66
2024-02-29T00:17:34.772Z,7.89
2024-02-29T00:18:34.761Z,7.31
2024-02-29T00:19:34.733Z,6.09
2024-02-29T00:20:34.791Z,7.17
2024-02-29T00:21:34.877Z,7.41
2024-02-29T00:22:34.881Z,7.77
2024-02-29T00:23:34.931Z,7.56
2024-02-29T00:24:37.411Z,7.96
2024-02-29T00:25:35.057Z,7.08
2024-02-29T00:26:35.084Z,7.17
2024-02-29T00:27:35.265Z,6.56
2024-02-29T00:28:35.186Z,6.31
2024-02-29T00:29:35.213Z,6.77
2024-02-29T00:30:35.336Z,6.06
2024-02-29T00:31:35.302Z,7.17
2024-02-29T00:32:35.585Z,6.97
2024-02-29T00:33:35.413Z,6.28
2024-02-29T00:34:35.406Z,6.27
2024-02-29T00:35:35.443Z,6.40
2024-02-29T00:36:35.596Z,6.45
2024-02-29T00:37:35.513Z,7.00
2024-02-29T00:38:35.541Z,7.42
2024-02-29T00:39:35.596Z,7.15
2024-02-29T00:40:35.599Z,6.15
2024-02-29T00:41:35.622Z,6.20
2024-02-29T00:42:35.656Z,5.72
2024-02-29T00:43:35.666Z,6.31
2024-02-29T00:44:35.653Z,6.33
2024-02-29T00:45:35.710Z,6.77
2024-02-29T00:46:35.675Z,6.71
2024-02-29T00:47:35.772Z,6.86
2024-02-29T00:48:35.763Z,6.21
2024-02-29T00:49:35.767Z,6.05
2024-02-29T00:50:35.792Z,6.65
2024-02-29T00:51:35.873Z,6.48
2024-02-29T00:52:35.831Z,6.05
2024-02-29T00:53:35.879Z,5.84
2024-02-29T00:54:35.977Z,6.25
2024-02-29T00:55:36.013Z,6.02
2024-02-29T00:56:36.078Z,6.33
2024-02-29T00:57:36.163Z,6.05
2024-02-29T00:58:36.231Z,6.89
2024-02-29T00:59:36.288Z,6.40
2024-02-29T01:00:36.437Z,6.63
2024-02-29T01:01:36.491Z,6.27
2024-02-29T01:02:36.500Z,6.76
2024-02-29T01:03:36.607Z,6.60
2024-02-29T01:04:36.615Z,6.16
2024-02-29T01:05:36.674Z,6.32
2024-02-29T01:06:36.747Z,5.65
2024-02-29T01:07:36.735Z,6.12
2024-02-29T01:08:36.871Z,6.53
2024-02-29T01:09:36.869Z,6.41
2024-02-29T01:10:36.850Z,6.44
2024-02-29T01:11:36.880Z,6.13
2024-02-29T01:12:36.957Z,6.07
2024-02-29T01:13:36.971Z,5.95
2024-02-29T01:14:37.014Z,6.32
2024-02-29T01:15:37.056Z,6.68
2024-02-29T01:16:37.083Z,5.73
2024-02-29T01:17:37.113Z,6.07
2024-02-29T01:18:37.168Z,6.07
2024-02-29T01:19:37.167Z,6.83
2024-02-29T01:20:37.204Z,6.23
2024-02-29T01:21:37.269Z,6.34
2024-02-29T01:22:37.256Z,6.36
2024-02-29T01:23:37.272Z,6.16
2024-02-29T01:24:37.336Z,6.06
2024-02-29T01:25:37.332Z,6.09
2024-02-29T01:26:37.360Z,6.18
2024-02-29T01:27:37.493Z,6.24
2024-02-29T01:28:37.415Z,6.34
2024-02-29T01:29:37.434Z,6.22
2024-02-29T01:30:37.479Z,6.01
2024-02-29T01:31:37.476Z,7.58
2024-02-29T01:32:38.043Z,6.17
2024-02-29T01:33:37.570Z,6.09
2024-02-29T01:34:58.546Z,6.41
2024-02-29T01:35:37.555Z,5.83
2024-02-29T01:36:37.555Z,5.29
2024-02-29T01:37:37.543Z,5.23
2024-02-29T01:38:37.611Z,5.76
2024-02-29T01:39:37.747Z,5.70
2024-02-29T01:40:37.543Z,5.46
2024-02-29T01:41:37.527Z,5.52
2024-02-29T01:42:37.551Z,6.87
2024-02-29T01:43:37.527Z,6.04
2024-02-29T01:44:37.558Z,6.10
2024-02-29T01:45:37.558Z,6.15
2024-02-29T01:46:37.530Z,5.66
2024-02-29T01:47:37.562Z,6.39
2024-02-29T01:48:37.585Z,6.05
2024-02-29T01:49:37.533Z,5.30
2024-02-29T01:50:37.548Z,6.22
2024-02-29T01:51:37.582Z,6.08
2024-02-29T01:52:37.558Z,6.63
2024-02-29T01:53:37.557Z,6.23
2024-02-29T01:54:37.579Z,5.46
2024-02-29T01:55:37.544Z,6.39
2024-02-29T01:56:37.550Z,6.37
2024-02-29T01:57:37.565Z,6.68
2024-02-29T01:58:37.556Z,5.50
2024-02-29T01:59:37.554Z,6.33
2024-02-29T02:00:37.655Z,6.03
2024-02-29T02:01:37.612Z,6.03
2024-02-29T02:02:37.557Z,5.82
2024-02-29T02:03:37.583Z,6.08
2024-02-29T02:04:37.570Z,5.93
2024-02-29T02:05:37.561Z,6.01
2024-02-29T02:06:37.589Z,5.48
2024-02-29T02:07:37.555Z,6.30
2024-02-29T02:08:37.673Z,5.26
2024-02-29T02:09:37.602Z,6.08
2024-02-29T02:10:37.572Z,5.70
2024-02-29T02:11:37.580Z,5.71
2024-02-29T02:12:37.793Z,6.70
2024-02-29T02:13:37.566Z,5.16
2024-02-29T02:14:37.566Z,5.27
2024-02-29T02:15:37.590Z,5.51
2024-02-29T02:16:37.565Z,6.28
2024-02-29T02:17:37.592Z,5.33
2024-02-29T02:18:37.609Z,6.22
2024-02-29T02:19:37.561Z,5.90
2024-02-29T02:20:37.563Z,6.36
2024-02-29T02:21:37.579Z,5.87
2024-02-29T02:22:37.558Z,6.20
2024-02-29T02:23:37.572Z,6.35
2024-02-29T02:24:37.605Z,6.14
2024-02-29T02:25:37.564Z,5.35
2024-02-29T02:26:37.570Z,5.52
2024-02-29T02:27:37.601Z,5.92
2024-02-29T02:28:37.566Z,6.17
2024-02-29T02:29:37.556Z,6.46
2024-02-29T02:30:37.587Z,5.93
2024-02-29T02:31:37.564Z,6.45
2024-02-29T02:32:37.594Z,5.96
2024-02-29T02:33:37.570Z,5.92
2024-02-29T02:34:37.575Z,6.01
2024-02-29T02:35:37.563Z,5.82
2024-02-29T02:36:37.702Z,5.51
2024-02-29T02:37:37.650Z,6.04
2024-02-29T02:38:37.724Z,5.77
2024-02-29T02:39:37.815Z,5.96
2024-02-29T02:40:37.855Z,6.36
2024-02-29T02:41:37.913Z,6.14
2024-02-29T02:42:38.040Z,5.63
2024-02-29T02:43:38.050Z,6.04
2024-02-29T02:44:38.133Z,6.16
2024-02-29T02:45:38.209Z,5.30
2024-02-29T02:46:38.255Z,6.29
2024-02-29T02:47:38.376Z,6.32
2024-02-29T02:48:38.418Z,5.92
2024-02-29T02:49:38.470Z,5.66
2024-02-29T02:50:38.607Z,6.15
2024-02-29T02:51:38.615Z,5.78
2024-02-29T02:52:38.655Z,5.36
2024-02-29T02:53:38.708Z,5.20
2024-02-29T02:54:38.793Z,5.55
2024-02-29T02:55:38.837Z,5.49
2024-02-29T02:56:38.901Z,5.43
2024-02-29T02:57:38.995Z,5.22
2024-02-29T02:58:39.065Z,6.15
2024-02-29T02:59:39.114Z,5.78
2024-02-29T03:00:39.361Z,5.54
2024-02-29T03:01:39.272Z,6.33
2024-02-29T03:02:39.317Z,6.11
2024-02-29T03:03:39.394Z,5.88
2024-02-29T03:04:39.457Z,5.74
2024-02-29T03:05:39.502Z,5.66
2024-02-29T03:06:39.597Z,5.81
2024-02-29T03:07:39.935Z,6.07
2024-02-29T03:08:39.690Z,5.29
2024-02-29T03:09:39.775Z,5.93
2024-02-29T03:10:39.819Z,5.70
2024-02-29T03:11:39.882Z,5.51
2024-02-29T03:12:40.041Z,6.60
2024-02-29T03:13:39.983Z,5.67
2024-02-29T03:14:40.064Z,5.03
2024-02-29T03:15:40.149Z,6.04
2024-02-29T03:16:40.760Z,5.91
2024-02-29T03:17:40.283Z,5.48
2024-02-29T03:18:40.424Z,5.66
2024-02-29T03:19:40.445Z,6.12
2024-02-29T03:20:40.476Z,5.92
2024-02-29T03:21:40.623Z,5.34
2024-02-29T03:22:40.632Z,5.46
2024-02-29T03:23:40.706Z,5.76
2024-02-29T03:24:40.815Z,5.17
2024-02-29T03:25:40.843Z,5.36
2024-02-29T03:26:40.898Z,6.75
2024-02-29T03:27:40.949Z,5.90
2024-02-29T03:28:41.036Z,5.48
2024-02-29T03:29:41.057Z,5.20
2024-02-29T03:30:41.180Z,5.27
2024-02-29T03:31:41.205Z,5.99
2024-02-29T03:32:41.267Z,5.36
2024-02-29T03:33:41.353Z,5.85
2024-02-29T03:34:41.417Z,4.99
2024-02-29T03:35:41.496Z,5.29
2024-02-29T03:36:41.584Z,5.33
2024-02-29T03:37:41.596Z,5.89
2024-02-29T03:38:41.676Z,5.85
2024-02-29T03:39:41.742Z,5.52
2024-02-29T03:40:45.763Z,4.87
2024-02-29T03:41:41.778Z,5.78
2024-02-29T03:42:41.814Z,5.42
2024-02-29T03:43:41.772Z,5.75
2024-02-29T03:44:41.761Z,5.23
2024-02-29T03:45:41.777Z,5.68
2024-02-29T03:46:41.766Z,5.41
2024-02-29T03:47:41.816Z,5.07
2024-02-29T03:48:41.799Z,5.37
2024-02-29T03:49:41.769Z,5.31
2024-02-29T03:50:41.770Z,5.61
2024-02-29T03:51:41.794Z,5.88
2024-02-29T03:52:41.784Z,5.95
2024-02-29T03:53:41.786Z,6.00
2024-02-29T03:54:41.877Z,5.64
2024-02-29T03:55:41.791Z,5.27
2024-02-29T03:56:41.767Z,5.73
2024-02-29T03:57:41.842Z,5.70
2024-02-29T03:58:41.765Z,5.38
2024-02-29T03:59:41.775Z,5.91
2024-02-29T04:00:41.819Z,5.43
2024-02-29T04:01:41.819Z,5.82
2024-02-29T04:02:41.776Z,5.32
2024-02-29T04:03:41.921Z,4.97
2024-02-29T04:04:41.900Z,5.20
2024-02-29T04:05:41.987Z,4.99
2024-02-29T04:06:42.103Z,5.82
2024-02-29T04:07:42.088Z,4.93
2024-02-29T04:08:42.155Z,4.57
2024-02-29T04:09:42.257Z,5.83
2024-02-29T04:10:42.280Z,5.65
2024-02-29T04:11:42.341Z,5.37
2024-02-29T04:12:42.432Z,5.54
2024-02-29T04:13:42.463Z,5.42
2024-02-29T04:14:42.522Z,6.27
2024-02-29T04:15:42.735Z,5.34
2024-02-29T04:16:42.622Z,5.67
2024-02-29T04:17:42.728Z,5.56
2024-02-29T04:18:42.789Z,6.17
2024-02-29T04:19:42.845Z,4.76
2024-02-29T04:20:42.991Z,5.49
2024-02-29T04:21:42.969Z,5.23
2024-02-29T04:22:43.024Z,5.75
2024-02-29T04:23:43.105Z,5.60
2024-02-29T04:24:43.161Z,5.22
2024-02-29T04:25:43.226Z,4.90
2024-02-29T04:26:43.279Z,5.61
2024-02-29T04:27:43.423Z,5.44
2024-02-29T04:28:50.921Z,5.90
2024-02-29T04:29:50.909Z,4.79
2024-02-29T04:30:50.967Z,5.77
2024-02-29T04:31:58.567Z,5.82
2024-02-29T04:32:58.625Z,5.33
2024-02-29T04:33:58.603Z,5.17
2024-02-29T04:34:58.564Z,5.59
2024-02-29T04:35:58.662Z,5.72
2024-02-29T04:36:58.590Z,5.76
2024-02-29T04:37:58.570Z,5.91
2024-02-29T04:38:58.584Z,5.45
2024-02-29T04:39:58.597Z,5.32
2024-02-29T04:40:58.587Z,5.26
2024-02-29T04:41:58.599Z,5.59
2024-02-29T04:42:58.610Z,5.46
2024-02-29T04:43:58.573Z,5.20
2024-02-29T04:44:58.573Z,5.43
2024-02-29T04:45:58.631Z,5.19
2024-02-29T04:46:58.576Z,5.30
2024-02-29T04:47:58.643Z,5.46
2024-02-29T04:48:58.599Z,5.15
2024-02-29T04:49:58.581Z,5.68
2024-02-29T04:50:58.575Z,5.07
2024-02-29T04:51:58.594Z,4.96
2024-02-29T04:52:58.591Z,5.64
2024-02-29T04:53:58.596Z,5.33
2024-02-29T04:54:58.659Z,5.06
2024-02-29T04:55:58.603Z,5.93
2024-02-29T04:56:58.586Z,5.34
2024-02-29T04:57:58.610Z,5.38
2024-02-29T04:58:58.588Z,5.45
2024-02-29T04:59:58.593Z,4.94
2024-02-29T05:00:58.689Z,5.17
2024-02-29T05:01:58.659Z,5.48
2024-02-29T05:02:58.609Z,5.65
2024-02-29T05:03:58.640Z,5.84
2024-02-29T05:04:58.608Z,5.18
2024-02-29T05:05:58.614Z,5.55
2024-02-29T05:06:58.639Z,5.48
2024-02-29T05:07:58.627Z,5.49
2024-02-29T05:08:58.627Z,5.99
2024-02-29T05:09:58.651Z,4.98
2024-02-29T05:10:58.765Z,5.40
2024-02-29T05:11:58.733Z,4.71
2024-02-29T05:12:58.801Z,5.89
2024-02-29T05:13:58.839Z,4.89
2024-02-29T05:14:58.902Z,6.52
2024-02-29T05:15:58.963Z,5.26
2024-02-29T05:16:58.983Z,5.79
2024-02-29T05:17:59.071Z,5.59
2024-02-29T05:18:59.123Z,4.87
2024-02-29T05:19:59.145Z,5.13
2024-02-29T05:20:59.175Z,4.93
2024-02-29T05:21:59.312Z,5.13
2024-02-29T05:22:59.300Z,5.64
2024-02-29T05:23:59.373Z,5.14
2024-02-29T05:24:59.519Z,5.34
2024-02-29T05:25:59.523Z,5.67
2024-02-29T05:26:59.663Z,5.37
2024-02-29T05:27:59.718Z,4.96
2024-02-29T05:28:59.681Z,5.01
2024-02-29T05:29:59.764Z,5.29
2024-02-29T05:30:59.878Z,5.07
2024-02-29T05:31:59.911Z,4.45
2024-02-29T05:33:00.017Z,5.25
2024-02-29T05:34:00.100Z,6.20
2024-02-29T05:35:00.129Z,5.57
2024-02-29T05:36:00.195Z,5.37
2024-02-29T05:37:00.284Z,5.24
2024-02-29T05:38:00.341Z,5.40
2024-02-29T05:39:00.366Z,5.07
2024-02-29T05:40:00.440Z,5.17
2024-02-29T05:41:00.443Z,5.48
2024-02-29T05:42:00.488Z,6.02
2024-02-29T05:43:00.579Z,6.20
2024-02-29T05:44:00.556Z,5.98
2024-02-29T05:45:00.588Z,5.32
2024-02-29T05:46:00.641Z,5.38
2024-02-29T05:47:00.672Z,5.07
2024-02-29T05:48:00.855Z,4.47
2024-02-29T05:49:00.842Z,5.33
2024-02-29T05:50:00.798Z,4.82
2024-02-29T05:51:00.818Z,5.57
2024-02-29T05:52:00.924Z,5.43
2024-02-29T05:53:00.862Z,5.12
2024-02-29T05:54:00.908Z,5.95
2024-02-29T05:55:00.965Z,5.21
2024-02-29T05:56:00.934Z,5.42
2024-02-29T05:57:04.296Z,5.56
2024-02-29T05:58:01.018Z,5.44
2024-02-29T05:59:00.944Z,5.97
2024-02-29T06:00:00.949Z,5.45
2024-02-29T06:01:01.034Z,5.63
2024-02-29T06:02:01.095Z,5.00
2024-02-29T06:03:00.960Z,6.63
2024-02-29T06:04:01.102Z,5.42
2024-02-29T06:05:00.999Z,5.06
2024-02-29T06:06:00.948Z,6.16
2024-02-29T06:07:00.985Z,5.55
2024-02-29T06:08:01.002Z,5.93
2024-02-29T06:09:00.961Z,6.06
2024-02-29T06:10:00.992Z,5.39
2024-02-29T06:11:00.975Z,5.11
2024-02-29T06:12:00.956Z,5.94
2024-02-29T06:13:01.054Z,5.39
2024-02-29T06:14:00.981Z,6.70
2024-02-29T06:15:00.967Z,5.89
2024-02-29T06:16:00.976Z,6.60
2024-02-29T06:17:00.968Z,5.01
2024-02-29T06:18:01.022Z,6.02
2024-02-29T06:19:01.019Z,5.71
2024-02-29T06:20:00.963Z,5.27
2024-02-29T06:21:00.968Z,5.68
2024-02-29T06:22:00.991Z,5.73
2024-02-29T06:23:01.876Z,4.98
2024-02-29T06:24:00.967Z,5.39
2024-02-29T06:25:01.007Z,5.87
2024-02-29T06:26:00.954Z,5.90
2024-02-29T06:27:00.948Z,5.67
2024-02-29T06:28:00.993Z,5.46
2024-02-29T06:29:00.993Z,5.83
2024-02-29T06:30:00.965Z,5.36
2024-02-29T06:31:01.004Z,5.59
2024-02-29T06:32:00.993Z,5.15
2024-02-29T06:33:01.092Z,5.98
2024-02-29T06:34:01.096Z,5.89
2024-02-29T06:35:01.047Z,6.09
2024-02-29T06:36:01.067Z,5.69
2024-02-29T06:37:01.109Z,5.68
2024-02-29T06:38:01.108Z,5.35
2024-02-29T06:39:01.126Z,5.75
2024-02-29T06:40:01.289Z,4.96
2024-02-29T06:41:01.185Z,5.74
2024-02-29T06:42:01.231Z,4.84
2024-02-29T06:43:01.284Z,5.72
2024-02-29T06:44:01.246Z,6.06
2024-02-29T06:45:01.254Z,6.00
2024-02-29T06:46:01.385Z,5.34
2024-02-29T06:47:01.282Z,5.19
2024-02-29T06:48:01.364Z,5.44
2024-02-29T06:49:01.347Z,5.55
2024-02-29T06:50:01.426Z,6.29
2024-02-29T06:51:01.384Z,5.56
2024-02-29T06:52:01.435Z,5.89
2024-02-29T06:53:01.423Z,5.60
2024-02-29T06:54:01.461Z,5.36
2024-02-29T06:55:01.512Z,5.82
2024-02-29T06:56:01.504Z,6.13
2024-02-29T06:57:01.539Z,5.84
2024-02-29T06:58:01.590Z,5.27
2024-02-29T06:59:01.556Z,5.99
2024-02-29T07:00:01.575Z,5.54
2024-02-29T07:01:01.667Z,4.97
2024-02-29T07:02:01.656Z,5.87
2024-02-29T07:03:01.666Z,5.70
2024-02-29T07:04:01.739Z,5.95
2024-02-29T07:05:01.716Z,5.53
2024-02-29T07:06:01.721Z,5.38
2024-02-29T07:07:01.819Z,6.70
2024-02-29T07:08:01.771Z,5.74
2024-02-29T07:09:01.785Z,5.43
2024-02-29T07:10:01.931Z,5.81
2024-02-29T07:11:02.558Z,5.68
2024-02-29T07:12:01.852Z,5.71
2024-02-29T07:13:01.992Z,5.81
2024-02-29T07:14:01.927Z,5.65
2024-02-29T07:15:01.966Z,5.58
2024-02-29T07:16:02.025Z,6.53
2024-02-29T07:17:02.079Z,5.82
2024-02-29T07:18:02.183Z,6.45
2024-02-29T07:19:02.252Z,6.61
2024-02-29T07:20:02.343Z,6.55
2024-02-29T07:21:02.306Z,6.39
2024-02-29T07:22:02.397Z,7.04
2024-02-29T07:23:02.455Z,7.21
2024-02-29T07:24:02.520Z,6.67
2024-02-29T07:25:02.610Z,6.28
2024-02-29T07:26:02.666Z,7.21
2024-02-29T07:27:02.781Z,7.35
2024-02-29T07:28:02.820Z,6.43
2024-02-29T07:29:02.853Z,7.47
2024-02-29T07:30:02.924Z,5.88
2024-02-29T07:31:03.087Z,6.92
2024-02-29T07:32:03.054Z,7.28
2024-02-29T07:33:03.166Z,7.46
2024-02-29T07:34:03.274Z,6.72
2024-02-29T07:35:03.228Z,8.22
2024-02-29T07:36:03.310Z,9.44
2024-02-29T07:37:03.394Z,13.06
2024-02-29T07:38:03.397Z,12.48
2024-02-29T07:39:03.461Z,13.84
2024-02-29T07:40:03.608Z,15.82
2024-02-29T07:41:03.553Z,16.78
2024-02-29T07:42:03.588Z,17.92
2024-02-29T07:43:03.618Z,18.07
2024-02-29T07:44:03.607Z,15.81
2024-02-29T07:45:03.636Z,20.16
2024-02-29T07:46:03.679Z,18.78
2024-02-29T07:47:03.626Z,20.44
2024-02-29T07:48:03.677Z,20.74
2024-02-29T07:49:03.775Z,18.61
2024-02-29T07:50:03.698Z,22.38
2024-02-29T07:51:03.714Z,20.75
2024-02-29T07:52:03.752Z,26.53
2024-02-29T07:53:03.744Z,25.93
2024-02-29T07:54:03.767Z,23.72
2024-02-29T07:55:03.838Z,21.35
2024-02-29T07:56:03.810Z,21.60
2024-02-29T07:57:03.858Z,20.67
2024-02-29T07:58:03.905Z,20.80
2024-02-29T07:59:03.917Z,21.27
2024-02-29T08:00:03.963Z,22.62
2024-02-29T08:01:04.106Z,23.75
2024-02-29T08:02:04.952Z,23.17
2024-02-29T08:03:04.040Z,23.63
2024-02-29T08:04:04.165Z,24.92
2024-02-29T08:05:04.113Z,24.35
2024-02-29T08:06:04.139Z,26.59
2024-02-29T08:07:04.202Z,28.05
2024-02-29T08:08:04.224Z,27.64
2024-02-29T08:09:04.907Z,31.28
2024-02-29T08:10:04.356Z,31.23
2024-02-29T08:11:04.429Z,26.79
2024-02-29T08:12:04.478Z,28.05
2024-02-29T08:13:04.502Z,29.86
2024-02-29T08:14:04.445Z,27.80
2024-02-29T08:15:04.464Z,28.85
2024-02-29T08:16:04.489Z,30.58
2024-02-29T08:17:04.459Z,28.94
2024-02-29T08:18:04.469Z,29.79
2024-02-29T08:19:04.498Z,29.06
2024-02-29T08:20:04.456Z,28.94
2024-02-29T08:21:04.468Z,29.88
2024-02-29T08:22:04.547Z,29.32
2024-02-29T08:23:04.484Z,25.96
2024-02-29T08:24:04.484Z,26.00
2024-02-29T08:25:04.618Z,28.58
2024-02-29T08:26:04.496Z,27.92
2024-02-29T08:27:04.528Z,28.27
2024-02-29T08:28:04.643Z,28.54
2024-02-29T08:29:04.618Z,30.87
2024-02-29T08:30:04.645Z,28.04
2024-02-29T08:31:04.724Z,28.29
2024-02-29T08:32:04.713Z,28.34
2024-02-29T08:33:04.736Z,27.88
2024-02-29T08:34:04.714Z,29.16
2024-02-29T08:35:04.682Z,28.86
2024-02-29T08:36:04.657Z,26.79
2024-02-29T08:37:04.695Z,31.71
2024-02-29T08:38:04.674Z,26.90
2024-02-29T08:39:04.714Z,30.24
2024-02-29T08:40:04.729Z,28.92
2024-02-29T08:41:04.750Z,29.65
2024-02-29T08:42:04.751Z,28.15
2024-02-29T08:43:04.827Z,28.93
2024-02-29T08:44:04.786Z,28.35
2024-02-29T08:45:04.777Z,30.77
2024-02-29T08:46:04.798Z,32.08
2024-02-29T08:47:04.804Z,31.07
2024-02-29T08:48:04.873Z,32.45
2024-02-29T08:49:04.921Z,31.21
2024-02-29T08:50:04.927Z,31.75
2024-02-29T08:51:04.979Z,31.49
2024-02-29T08:52:05.190Z,32.53
2024-02-29T08:53:05.090Z,31.60
2024-02-29T08:54:07.578Z,31.31
2024-02-29T08:55:05.333Z,31.23
2024-02-29T08:56:05.333Z,32.67
2024-02-29T08:57:05.374Z,31.35
2024-02-29T08:58:05.500Z,30.19
2024-02-29T08:59:05.449Z,30.38
2024-02-29T09:00:05.488Z,32.46
2024-02-29T09:01:05.661Z,30.35
2024-02-29T09:02:05.648Z,31.41
2024-02-29T09:03:05.609Z,28.99
2024-02-29T09:04:05.661Z,30.76
2024-02-29T09:05:13.231Z,30.14
2024-02-29T09:06:13.181Z,30.17
2024-02-29T09:07:13.241Z,29.53
2024-02-29T09:08:13.185Z,29.65
2024-02-29T09:09:13.202Z,31.89
2024-02-29T09:10:13.209Z,29.34
2024-02-29T09:11:13.219Z,28.99
2024-02-29T09:12:13.202Z,28.28
2024-02-29T09:13:20.944Z,28.48
2024-02-29T09:14:14.200Z,29.25
2024-02-29T09:15:13.212Z,28.77
2024-02-29T09:16:13.240Z,28.49
2024-02-29T09:17:13.220Z,30.16
2024-02-29T09:18:13.264Z,27.24
2024-02-29T09:19:13.290Z,27.10
2024-02-29T09:20:13.231Z,28.03
2024-02-29T09:21:13.225Z,27.71
2024-02-29T09:22:13.265Z,28.02
2024-02-29T09:23:13.220Z,26.85
2024-02-29T09:24:15.646Z,26.48
2024-02-29T09:25:13.264Z,26.15
2024-02-29T09:26:13.227Z,24.63
2024-02-29T09:27:13.237Z,24.39
2024-02-29T09:28:13.294Z,24.41
2024-02-29T09:29:13.317Z,24.71
2024-02-29T09:30:13.231Z,25.82
2024-02-29T09:31:13.313Z,24.64
2024-02-29T09:32:13.241Z,25.89
2024-02-29T09:33:13.321Z,24.17
2024-02-29T09:34:13.263Z,23.44
2024-02-29T09:35:13.245Z,24.18
2024-02-29T09:36:13.236Z,20.64
2024-02-29T09:37:13.327Z,22.21
2024-02-29T09:38:13.267Z,21.83
2024-02-29T09:39:13.257Z,23.80
2024-02-29T09:40:13.272Z,23.39
2024-02-29T09:41:25.652Z,22.64
2024-02-29T09:42:15.409Z,22.21
2024-02-29T09:43:13.562Z,22.79
2024-02-29T09:44:13.526Z,22.74
2024-02-29T09:45:13.571Z,19.88
2024-02-29T09:46:13.690Z,20.97
2024-02-29T09:47:13.704Z,21.93
2024-02-29T09:48:13.744Z,21.91
2024-02-29T09:49:13.813Z,21.24
2024-02-29T09:50:13.841Z,20.34
2024-02-29T09:51:15.997Z,18.34
2024-02-29T09:52:14.120Z,16.29
2024-02-29T09:53:13.992Z,17.59
2024-02-29T09:54:14.038Z,16.80
2024-02-29T09:55:14.136Z,18.31
2024-02-29T09:56:14.168Z,17.56
2024-02-29T09:57:14.191Z,16.45
2024-02-29T09:58:14.313Z,15.63
2024-02-29T09:59:14.270Z,16.23
2024-02-29T10:00:14.332Z,14.95
2024-02-29T10:01:14.495Z,16.72
2024-02-29T10:02:14.437Z,13.38
2024-02-29T10:03:14.401Z,14.22
2024-02-29T10:04:14.508Z,12.54
2024-02-29T10:05:14.449Z,14.21
2024-02-29T10:06:14.474Z,14.16
2024-02-29T10:07:14.550Z,14.50
2024-02-29T10:08:14.529Z,13.84
2024-02-29T10:09:14.566Z,12.81
2024-02-29T10:10:14.656Z,14.03
2024-02-29T10:11:14.663Z,15.18
2024-02-29T10:12:14.629Z,13.05
2024-02-29T10:13:14.711Z,13.44
2024-02-29T10:14:14.617Z,12.55
2024-02-29T10:15:14.637Z,13.82
2024-02-29T10:16:14.837Z,14.05
2024-02-29T10:17:14.657Z,13.53
2024-02-29T10:18:14.676Z,13.75
2024-02-29T10:19:14.714Z,13.43
2024-02-29T10:20:14.683Z,14.78
2024-02-29T10:21:14.680Z,14.03
2024-02-29T10:22:14.711Z,14.33
2024-02-29T10:23:14.736Z,13.97
2024-02-29T10:24:14.720Z,13.85
2024-02-29T10:25:14.829Z,13.94
2024-02-29T10:26:14.772Z,13.48
2024-02-29T10:27:14.894Z,12.91
2024-02-29T10:28:14.914Z,14.94
2024-02-29T10:29:14.956Z,15.75
2024-02-29T10:30:15.032Z,14.01
2024-02-29T10:31:15.187Z,12.94
2024-02-29T10:32:15.142Z,12.57
2024-02-29T10:33:15.202Z,14.36
2024-02-29T10:34:15.392Z,13.54
2024-02-29T10:35:15.339Z,13.09
2024-02-29T10:36:15.381Z,13.65
2024-02-29T10:37:15.440Z,15.56
2024-02-29T10:38:15.486Z,15.23
2024-02-29T10:39:15.564Z,13.80
2024-02-29T10:40:15.669Z,16.43
2024-02-29T10:41:15.688Z,16.45
2024-02-29T10:42:15.765Z,17.79
2024-02-29T10:43:15.940Z,17.51
2024-02-29T10:44:15.890Z,19.16
2024-02-29T10:45:15.933Z,17.93
2024-02-29T10:46:16.069Z,16.37
2024-02-29T10:47:16.016Z,19.71
2024-02-29T10:48:16.035Z,16.49
2024-02-29T10:49:16.093Z,17.47
2024-02-29T10:50:16.037Z,15.97
2024-02-29T10:51:16.056Z,14.38
2024-02-29T10:52:16.142Z,15.10
2024-02-29T10:53:16.111Z,14.21
2024-02-29T10:54:16.111Z,15.36
2024-02-29T10:55:16.206Z,13.07
2024-02-29T10:56:16.115Z,14.98
2024-02-29T10:57:16.140Z,16.11
2024-02-29T10:58:16.189Z,16.54
2024-02-29T10:59:16.178Z,16.70
2024-02-29T11:00:21.238Z,15.99
2024-02-29T11:01:16.311Z,15.93
2024-02-29T11:02:16.221Z,14.77
2024-02-29T11:03:16.232Z,16.59
2024-02-29T11:04:16.316Z,15.24
2024-02-29T11:05:16.236Z,15.39
2024-02-29T11:06:16.228Z,14.90
2024-02-29T11:07:16.281Z,13.71
2024-02-29T11:08:16.216Z,15.39
2024-02-29T11:09:16.230Z,14.04
2024-02-29T11:10:16.289Z,13.22
2024-02-29T11:11:16.377Z,13.44
2024-02-29T11:12:16.216Z,14.18
2024-02-29T11:13:16.264Z,12.41
2024-02-29T11:14:16.334Z,14.28
2024-02-29T11:15:16.244Z,13.17
2024-02-29T11:16:16.261Z,13.49
2024-02-29T11:17:16.328Z,13.46
2024-02-29T11:18:16.270Z,13.80
2024-02-29T11:19:16.468Z,12.42
2024-02-29T11:20:16.299Z,12.69
2024-02-29T11:21:16.386Z,13.17
2024-02-29T11:22:16.594Z,12.76
2024-02-29T11:23:16.514Z,12.70
2024-02-29T11:24:16.578Z,12.26
2024-02-29T11:25:16.701Z,13.76
2024-02-29T11:26:16.720Z,11.28
2024-02-29T11:27:16.799Z,12.37
2024-02-29T11:28:16.943Z,12.16
2024-02-29T11:29:16.911Z,11.99
2024-02-29T11:30:16.911Z,12.55
2024-02-29T11:31:17.146Z,11.66
2024-02-29T11:32:17.048Z,11.22
2024-02-29T11:33:17.079Z,11.64
2024-02-29T11:34:17.017Z,12.72
2024-02-29T11:35:17.632Z,11.46
2024-02-29T11:36:17.029Z,12.52
2024-02-29T11:37:17.099Z,11.29
2024-02-29T11:38:25.085Z,10.48
2024-02-29T11:39:18.070Z,10.95
2024-02-29T11:40:17.249Z,10.96
2024-02-29T11:41:17.080Z,12.02
2024-02-29T11:42:17.060Z,12.16
2024-02-29T11:43:17.155Z,12.03
2024-02-29T11:44:17.083Z,11.08
2024-02-29T11:45:17.089Z,11.38
2024-02-29T11:46:17.171Z,11.59
2024-02-29T11:47:17.080Z,11.53
2024-02-29T11:48:17.107Z,11.54
2024-02-29T11:49:17.136Z,12.08
2024-02-29T11:50:17.083Z,11.62
2024-02-29T11:51:17.108Z,11.50
2024-02-29T11:52:17.143Z,10.86
2024-02-29T11:53:17.124Z,10.65
2024-02-29T11:54:17.135Z,12.01
2024-02-29T11:55:17.259Z,10.99
2024-02-29T11:56:17.360Z,11.32
2024-02-29T11:57:17.242Z,11.12
2024-02-29T11:58:17.429Z,9.29
2024-02-29T11:59:17.348Z,11.87
2024-02-29T12:00:22.411Z,11.58
2024-02-29T12:01:17.470Z,11.88
2024-02-29T12:02:17.489Z,10.66
2024-02-29T12:03:17.422Z,11.02
2024-02-29T12:04:17.406Z,10.48
2024-02-29T12:05:19.296Z,9.69
2024-02-29T12:06:17.589Z,9.70
2024-02-29T12:07:17.673Z,10.04
2024-02-29T12:08:17.679Z,9.49
2024-02-29T12:09:17.720Z,10.07
2024-02-29T12:10:17.873Z,10.40
2024-02-29T12:11:17.793Z,10.99
2024-02-29T12:12:17.836Z,9.33
2024-02-29T12:13:17.947Z,10.74
2024-02-29T12:14:17.910Z,10.07
2024-02-29T12:15:18.030Z,9.07
2024-02-29T12:16:18.010Z,9.64
2024-02-29T12:17:18.060Z,8.87
2024-02-29T12:18:18.121Z,9.51
2024-02-29T12:19:18.217Z,9.50
2024-02-29T12:20:18.312Z,9.54
2024-02-29T12:21:18.200Z,9.90
2024-02-29T12:22:18.284Z,9.57
2024-02-29T12:23:18.296Z,9.92
2024-02-29T12:24:18.329Z,9.32
2024-02-29T12:25:18.408Z,9.43
2024-02-29T12:26:18.646Z,8.85
2024-02-29T12:27:18.491Z,8.89
2024-02-29T12:28:18.534Z,8.79
2024-02-29T12:29:18.583Z,8.51
2024-02-29T12:30:18.620Z,9.02
2024-02-29T12:31:18.793Z,7.47
2024-02-29T12:32:18.721Z,7.52
2024-02-29T12:33:21.150Z,7.75
2024-02-29T12:34:18.809Z,7.40
2024-02-29T12:35:18.950Z,8.84
2024-02-29T12:36:18.900Z,9.31
2024-02-29T12:37:18.855Z,8.46
2024-02-29T12:38:18.783Z,9.51
2024-02-29T12:39:18.780Z,9.75
2024-02-29T12:40:18.801Z,9.13
2024-02-29T12:41:18.777Z,9.86
2024-02-29T12:42:18.790Z,11.14
2024-02-29T12:43:18.824Z,9.71
2024-02-29T12:44:18.800Z,9.87
2024-02-29T12:45:19.864Z,10.07
2024-02-29T12:46:18.813Z,10.96
2024-02-29T12:47:18.810Z,9.81
2024-02-29T12:48:18.786Z,9.86
2024-02-29T12:49:18.851Z,10.11
2024-02-29T12:50:18.778Z,10.80
2024-02-29T12:51:18.790Z,10.38
2024-02-29T12:52:18.842Z,10.80
2024-02-29T12:53:18.833Z,10.37
2024-02-29T12:54:18.795Z,10.31
2024-02-29T12:55:18.932Z,10.43
2024-02-29T12:56:18.795Z,8.87
2024-02-29T12:57:18.783Z,9.88
2024-02-29T12:58:18.967Z,10.58
2024-02-29T12:59:18.921Z,10.44
2024-02-29T13:00:18.929Z,10.66
2024-02-29T13:01:19.100Z,9.81
2024-02-29T13:02:18.997Z,9.62
2024-02-29T13:03:19.052Z,9.17
2024-02-29T13:04:19.121Z,9.53
2024-02-29T13:05:19.153Z,9.95
2024-02-29T13:06:19.218Z,8.99
2024-02-29T13:07:19.538Z,9.41
2024-02-29T13:08:19.317Z,10.40
2024-02-29T13:09:19.347Z,10.84